Time;durP1;ratioP1;P1;durP2;ratioP2;P2;SDS_P1;SDS_P2;PMS_P1;PMS_P2;Temp;Humidity;BMP_temperature;BMP_pressure;BME280_temperature;BME280_humidity;BME280_pressure;Samples;Min_cycle;Max_cycle;Signal;HPM_P1;HPM_P2
2022/08/09 00:01:47;;;;;;;;;;;21.00;46.40;;;;;;4921409;29;19920;-86
2022/08/09 00:04:13;;;;;;;;;;;21.00;46.10;;;;;;4903901;29;19919;-86
2022/08/09 00:06:39;;;;;;;;;;;20.90;45.90;;;;;;4917249;29;19946;-85
2022/08/09 00:09:04;;;;;;;;;;;20.80;46.10;;;;;;4912396;29;19915;-86
2022/08/09 00:11:30;;;;;;;;;;;20.80;46.30;;;;;;4913333;29;20006;-88
2022/08/09 00:13:55;;;;;;;;;;;20.70;46.40;;;;;;4903613;29;19911;-88
2022/08/09 00:16:21;;;;;;;;;;;20.70;46.50;;;;;;4919021;29;19945;-86
2022/08/09 00:18:48;;;;;;;;;;;20.70;46.60;;;;;;4898636;29;19973;-87
2022/08/09 00:21:14;;;;;;;;;;;20.60;46.70;;;;;;4903630;29;19978;-86
2022/08/09 00:23:39;;;;;;;;;;;20.50;46.80;;;;;;4920289;29;19916;-86
2022/08/09 00:26:05;;;;;;;;;;;20.50;46.80;;;;;;4909163;29;20348;-86
2022/08/09 00:28:31;;;;;;;;;;;20.50;47.80;;;;;;4901746;29;19922;-86
2022/08/09 00:30:57;;;;;;;;;;;20.40;48.00;;;;;;4901818;29;19916;-85
2022/08/09 00:33:22;;;;;;;;;;;20.40;48.10;;;;;;4905933;29;19923;-87
2022/08/09 00:35:48;;;;;;;;;;;20.30;48.30;;;;;;4919079;29;19915;-87
2022/08/09 00:38:14;;;;;;;;;;;20.40;48.70;;;;;;4917333;29;19927;-87
2022/08/09 00:40:40;;;;;;;;;;;20.30;48.60;;;;;;4903132;29;19915;-86
2022/08/09 00:43:06;;;;;;;;;;;20.30;48.50;;;;;;4912386;29;19970;-86
2022/08/09 00:45:32;;;;;;;;;;;20.30;48.50;;;;;;4912057;29;19919;-87
2022/08/09 00:47:57;;;;;;;;;;;20.30;48.60;;;;;;4919267;29;20005;-86
2022/08/09 00:50:23;;;;;;;;;;;20.20;48.90;;;;;;4917331;29;19944;-86
2022/08/09 00:52:48;;;;;;;;;;;20.20;49.10;;;;;;4894963;29;19947;-86
2022/08/09 00:55:14;;;;;;;;;;;20.20;49.30;;;;;;4914437;29;20387;-86
2022/08/09 00:57:39;;;;;;;;;;;20.20;49.30;;;;;;4901770;29;19995;-86
2022/08/09 01:00:07;;;;;;;;;;;20.10;49.30;;;;;;4918861;29;20368;-86
2022/08/09 01:02:34;;;;;;;;;;;20.10;49.70;;;;;;4899471;29;19920;-86
2022/08/09 01:05:02;;;;;;;;;;;20.10;50.10;;;;;;4916687;29;20375;-87
2022/08/09 01:07:37;;;;;;;;;;;20.20;50.00;;;;;;4908633;29;19923;-86
2022/08/09 01:10:05;;;;;;;;;;;20.10;50.10;;;;;;4901778;29;20416;-86
2022/08/09 01:12:38;;;;;;;;;;;20.20;50.20;;;;;;4893993;29;19926;-87
2022/08/09 01:15:05;;;;;;;;;;;20.20;50.60;;;;;;4917448;29;19919;-86
2022/08/09 01:17:48;;;;;;;;;;;20.20;50.80;;;;;;4919975;29;19923;-87
2022/08/09 01:20:27;;;;;;;;;;;20.20;50.90;;;;;;4919833;29;20002;-88
2022/08/09 01:23:02;;;;;;;;;;;20.10;51.10;;;;;;4900684;29;19919;-88
2022/08/09 01:25:46;;;;;;;;;;;20.20;51.10;;;;;;4920438;29;20355;-88
2022/08/09 01:28:13;;;;;;;;;;;20.20;51.10;;;;;;4919465;29;19991;-88
2022/08/09 01:30:39;;;;;;;;;;;20.20;51.30;;;;;;4907738;29;19926;-88
2022/08/09 01:33:06;;;;;;;;;;;20.10;51.40;;;;;;4920271;29;19927;-88
2022/08/09 01:35:38;;;;;;;;;;;20.20;51.70;;;;;;4903232;29;20013;-88
2022/08/09 01:38:07;;;;;;;;;;;20.20;51.70;;;;;;4919679;29;19979;-88
2022/08/09 01:40:34;;;;;;;;;;;20.10;51.80;;;;;;4895947;29;19923;-86
2022/08/09 01:43:00;;;;;;;;;;;20.20;52.10;;;;;;4913799;29;20277;-87
2022/08/09 01:45:27;;;;;;;;;;;20.20;52.40;;;;;;4914571;29;19963;-87
2022/08/09 01:47:52;;;;;;;;;;;20.20;52.30;;;;;;4909590;29;20287;-86
2022/08/09 01:50:19;;;;;;;;;;;20.20;52.60;;;;;;4919489;29;19922;-89
2022/08/09 01:52:45;;;;;;;;;;;20.20;52.70;;;;;;4898782;29;19920;-89
2022/08/09 01:55:11;;;;;;;;;;;20.20;52.90;;;;;;4901924;29;20261;-88
2022/08/09 01:57:41;;;;;;;;;;;20.20;52.70;;;;;;4903234;29;19923;-88
2022/08/09 02:00:07;;;;;;;;;;;20.20;52.50;;;;;;4904565;29;19911;-87
2022/08/09 02:02:34;;;;;;;;;;;20.20;52.40;;;;;;4916417;29;19920;-87
2022/08/09 02:05:03;;;;;;;;;;;20.10;52.20;;;;;;4919359;29;19970;-87
2022/08/09 02:07:29;;;;;;;;;;;20.10;52.10;;;;;;4914092;29;19919;-88
2022/08/09 02:10:00;;;;;;;;;;;20.00;52.00;;;;;;4913974;29;19923;-88
2022/08/09 02:12:26;;;;;;;;;;;20.00;51.80;;;;;;4903211;29;20355;-87
2022/08/09 02:14:53;;;;;;;;;;;19.90;51.70;;;;;;4920148;29;19911;-87
2022/08/09 02:17:23;;;;;;;;;;;19.90;51.60;;;;;;4919266;29;19979;-87
2022/08/09 02:19:49;;;;;;;;;;;19.80;51.50;;;;;;4919285;29;19922;-87
2022/08/09 02:22:30;;;;;;;;;;;19.80;51.40;;;;;;4906350;29;19915;-88
2022/08/09 02:24:57;;;;;;;;;;;19.70;51.30;;;;;;4916768;29;19923;-87
2022/08/09 02:27:23;;;;;;;;;;;19.60;51.40;;;;;;4912745;29;19914;-88
2022/08/09 02:29:50;;;;;;;;;;;19.60;51.40;;;;;;4898524;29;19938;-86
2022/08/09 02:32:18;;;;;;;;;;;19.50;51.30;;;;;;4912671;29;19915;-87
2022/08/09 02:34:46;;;;;;;;;;;19.50;51.40;;;;;;4893911;29;19922;-88
2022/08/09 02:37:13;;;;;;;;;;;19.40;51.50;;;;;;4914187;29;19919;-88
2022/08/09 02:39:45;;;;;;;;;;;19.40;51.40;;;;;;4918397;29;19915;-88
2022/08/09 02:42:15;;;;;;;;;;;19.30;51.60;;;;;;4913576;29;19915;-87
2022/08/09 02:44:43;;;;;;;;;;;19.30;51.70;;;;;;4896712;29;19966;-88
2022/08/09 02:47:10;;;;;;;;;;;19.20;51.60;;;;;;4904826;29;19925;-88
2022/08/09 02:49:44;;;;;;;;;;;19.20;51.60;;;;;;4909212;29;20009;-87
2022/08/09 02:52:12;;;;;;;;;;;19.20;51.60;;;;;;4921350;29;19915;-88
2022/08/09 02:54:38;;;;;;;;;;;19.10;51.70;;;;;;4927118;29;20372;-87
2022/08/09 02:57:04;;;;;;;;;;;19.00;51.70;;;;;;4917885;29;19919;-87
2022/08/09 02:59:33;;;;;;;;;;;19.00;51.80;;;;;;4905394;29;20458;-87
2022/08/09 03:01:59;;;;;;;;;;;19.00;51.90;;;;;;4924386;29;19915;-89
2022/08/09 03:04:26;;;;;;;;;;;19.00;51.90;;;;;;4925054;29;19930;-89
2022/08/09 03:06:51;;;;;;;;;;;18.90;51.80;;;;;;4908811;29;20344;-89
2022/08/09 03:09:19;;;;;;;;;;;18.90;51.90;;;;;;4906350;29;19989;-88
2022/08/09 03:11:46;;;;;;;;;;;18.80;52.10;;;;;;4917595;29;20020;-89
2022/08/09 03:14:12;;;;;;;;;;;18.80;52.30;;;;;;4921177;29;19959;-88
2022/08/09 03:16:38;;;;;;;;;;;18.80;52.40;;;;;;4905797;29;19930;-88
2022/08/09 03:19:04;;;;;;;;;;;18.80;52.40;;;;;;4924960;29;19919;-88
2022/08/09 03:21:29;;;;;;;;;;;18.80;52.60;;;;;;4924530;29;20006;-88
2022/08/09 03:23:55;;;;;;;;;;;18.70;52.40;;;;;;4926929;29;19926;-89
2022/08/09 03:26:20;;;;;;;;;;;18.70;52.50;;;;;;4924829;29;19919;-88
2022/08/09 03:28:47;;;;;;;;;;;18.70;52.50;;;;;;4894152;29;19911;-89
2022/08/09 03:31:13;;;;;;;;;;;18.70;52.50;;;;;;4905972;29;19919;-88
2022/08/09 03:33:41;;;;;;;;;;;18.70;52.60;;;;;;4920746;29;22308;-88
2022/08/09 03:36:07;;;;;;;;;;;18.70;52.60;;;;;;4905345;29;19915;-88
2022/08/09 03:38:34;;;;;;;;;;;18.60;52.60;;;;;;4908553;29;19923;-88
2022/08/09 03:40:59;;;;;;;;;;;18.60;52.50;;;;;;4906296;29;19943;-88
2022/08/09 03:43:26;;;;;;;;;;;18.60;52.50;;;;;;4905612;29;19915;-88
2022/08/09 03:45:51;;;;;;;;;;;18.60;52.60;;;;;;4902596;29;19919;-87
2022/08/09 03:48:17;;;;;;;;;;;18.60;52.70;;;;;;4921158;29;19922;-88
2022/08/09 03:50:43;;;;;;;;;;;18.60;52.80;;;;;;4904674;29;19915;-88
2022/08/09 03:53:09;;;;;;;;;;;18.60;52.90;;;;;;4922078;29;20026;-88
2022/08/09 03:55:35;;;;;;;;;;;18.50;52.90;;;;;;4905245;29;20368;-88
2022/08/09 03:58:00;;;;;;;;;;;18.60;52.90;;;;;;4921947;29;19926;-88
2022/08/09 04:00:26;;;;;;;;;;;18.60;52.80;;;;;;4904920;29;20356;-88
2022/08/09 04:02:52;;;;;;;;;;;18.50;52.90;;;;;;4920708;29;20022;-88
2022/08/09 04:05:18;;;;;;;;;;;18.50;53.10;;;;;;4919404;29;19915;-88
2022/08/09 04:07:43;;;;;;;;;;;18.50;53.10;;;;;;4904154;29;19919;-88
2022/08/09 04:10:09;;;;;;;;;;;18.50;53.20;;;;;;4921205;29;19961;-88
2022/08/09 04:12:45;;;;;;;;;;;18.60;53.20;;;;;;4921282;29;19915;-87
2022/08/09 04:15:11;;;;;;;;;;;18.60;53.40;;;;;;4923976;29;19958;-88
2022/08/09 04:17:37;;;;;;;;;;;18.60;53.60;;;;;;4924610;29;20018;-88
2022/08/09 04:20:03;;;;;;;;;;;18.70;53.70;;;;;;4925251;29;19970;-89
2022/08/09 04:22:28;;;;;;;;;;;18.80;53.80;;;;;;4909301;29;19962;-88
2022/08/09 04:24:54;;;;;;;;;;;18.90;54.00;;;;;;4908231;29;19915;-89
2022/08/09 04:27:19;;;;;;;;;;;19.10;54.30;;;;;;4895835;29;19980;-88
2022/08/09 04:29:45;;;;;;;;;;;19.20;54.70;;;;;;4910560;29;20062;-87
2022/08/09 04:32:10;;;;;;;;;;;19.40;54.90;;;;;;4914389;29;20002;-87
2022/08/09 04:34:36;;;;;;;;;;;19.60;55.00;;;;;;4903329;29;19922;-88
2022/08/09 04:37:01;;;;;;;;;;;19.80;55.10;;;;;;4914722;29;19924;-88
2022/08/09 04:39:27;;;;;;;;;;;20.10;55.20;;;;;;4916266;29;20268;-87
2022/08/09 04:41:52;;;;;;;;;;;20.30;55.20;;;;;;4897965;29;20266;-88
2022/08/09 04:44:18;;;;;;;;;;;20.60;55.20;;;;;;4910395;29;19985;-88
2022/08/09 04:46:43;;;;;;;;;;;20.90;55.20;;;;;;4914413;29;19927;-88
2022/08/09 04:49:08;;;;;;;;;;;21.20;55.20;;;;;;4902101;29;20016;-88
2022/08/09 04:51:34;;;;;;;;;;;21.50;55.10;;;;;;4916808;29;19969;-89
2022/08/09 04:54:00;;;;;;;;;;;21.90;55.00;;;;;;4913993;29;19919;-89
2022/08/09 04:56:25;;;;;;;;;;;22.20;54.80;;;;;;4901348;29;19971;-88
2022/08/09 04:58:51;;;;;;;;;;;22.50;54.50;;;;;;4918562;29;20367;-89
2022/08/09 05:01:16;;;;;;;;;;;22.90;54.30;;;;;;4918937;29;20415;-90
2022/08/09 05:03:42;;;;;;;;;;;23.30;54.00;;;;;;4917719;29;20400;-88
2022/08/09 05:06:08;;;;;;;;;;;23.60;53.70;;;;;;4918750;29;19916;-89
2022/08/09 05:08:34;;;;;;;;;;;24.00;53.50;;;;;;4910208;29;19923;-88
2022/08/09 05:11:00;;;;;;;;;;;24.40;53.00;;;;;;4898213;29;19915;-88
2022/08/09 05:13:25;;;;;;;;;;;24.80;52.40;;;;;;4914455;29;19930;-88
2022/08/09 05:15:50;;;;;;;;;;;25.20;51.90;;;;;;4916100;29;19915;-89
2022/08/09 05:18:16;;;;;;;;;;;25.60;51.40;;;;;;4911816;29;19923;-88
2022/08/09 05:20:41;;;;;;;;;;;26.00;50.90;;;;;;4917938;29;20342;-89
2022/08/09 05:23:07;;;;;;;;;;;26.30;50.10;;;;;;4889523;29;19927;-89
2022/08/09 05:25:33;;;;;;;;;;;26.70;49.20;;;;;;4918572;29;20006;-88
2022/08/09 05:27:58;;;;;;;;;;;27.00;47.90;;;;;;4912939;29;19979;-88
2022/08/09 05:30:23;;;;;;;;;;;27.30;47.30;;;;;;4915430;29;19923;-88
2022/08/09 05:32:49;;;;;;;;;;;27.60;46.80;;;;;;4900300;29;19958;-87
2022/08/09 05:35:14;;;;;;;;;;;27.90;46.00;;;;;;4916848;29;20355;-88
2022/08/09 05:37:40;;;;;;;;;;;28.20;44.50;;;;;;4895680;29;20387;-88
2022/08/09 05:40:06;;;;;;;;;;;28.50;43.70;;;;;;4915528;29;19923;-88
2022/08/09 05:42:32;;;;;;;;;;;28.70;43.10;;;;;;4912346;29;19927;-88
2022/08/09 05:44:57;;;;;;;;;;;29.00;43.10;;;;;;4916401;29;20014;-87
2022/08/09 05:47:23;;;;;;;;;;;29.30;42.50;;;;;;4915923;29;21603;-86
2022/08/09 05:49:50;;;;;;;;;;;29.70;42.10;;;;;;4915064;29;19922;-86
2022/08/09 05:52:15;;;;;;;;;;;29.90;41.30;;;;;;4898085;29;20272;-87
2022/08/09 05:54:41;;;;;;;;;;;30.30;41.00;;;;;;4910944;29;19919;-87
2022/08/09 05:57:06;;;;;;;;;;;30.60;40.20;;;;;;4907781;29;20013;-87
2022/08/09 05:59:32;;;;;;;;;;;30.90;39.40;;;;;;4915723;29;19919;-85
2022/08/09 06:01:57;;;;;;;;;;;31.30;38.90;;;;;;4895092;29;20307;-85
2022/08/09 06:04:23;;;;;;;;;;;31.60;38.30;;;;;;4914215;29;19915;-85
2022/08/09 06:06:49;;;;;;;;;;;32.00;37.20;;;;;;4912694;29;19926;-86
2022/08/09 06:09:14;;;;;;;;;;;32.20;36.30;;;;;;4913937;29;19950;-85
2022/08/09 06:11:39;;;;;;;;;;;32.40;35.70;;;;;;4915703;29;19919;-86
2022/08/09 06:14:05;;;;;;;;;;;32.70;35.50;;;;;;4916059;29;19911;-87
2022/08/09 06:16:30;;;;;;;;;;;32.90;34.70;;;;;;4915691;29;19962;-88
2022/08/09 06:18:56;;;;;;;;;;;33.20;34.00;;;;;;4901217;29;19916;-86
2022/08/09 06:21:21;;;;;;;;;;;33.30;33.50;;;;;;4904305;29;19922;-87
2022/08/09 06:23:47;;;;;;;;;;;33.50;32.90;;;;;;4910406;29;19919;-85
2022/08/09 06:26:13;;;;;;;;;;;33.80;32.80;;;;;;4899238;29;19915;-85
2022/08/09 06:28:39;;;;;;;;;;;33.80;31.60;;;;;;4899533;29;19926;-85
2022/08/09 06:31:04;;;;;;;;;;;34.00;31.80;;;;;;4913024;29;19920;-85
2022/08/09 06:33:29;;;;;;;;;;;34.30;32.00;;;;;;4889651;29;20032;-86
2022/08/09 06:35:55;;;;;;;;;;;34.60;31.40;;;;;;4913011;29;19946;-85
2022/08/09 06:38:20;;;;;;;;;;;34.80;30.60;;;;;;4892060;29;20700;-85
2022/08/09 06:40:46;;;;;;;;;;;35.00;30.50;;;;;;4903268;29;20280;-85
2022/08/09 06:43:12;;;;;;;;;;;35.20;30.30;;;;;;4898237;29;19926;-85
2022/08/09 06:45:38;;;;;;;;;;;35.50;29.40;;;;;;4883117;29;19919;-85
2022/08/09 06:48:03;;;;;;;;;;;35.70;29.30;;;;;;4893261;29;19915;-85
2022/08/09 06:50:29;;;;;;;;;;;35.80;29.10;;;;;;4913090;29;19930;-85
2022/08/09 06:52:54;;;;;;;;;;;36.00;29.10;;;;;;4907924;29;19925;-86
2022/08/09 06:55:20;;;;;;;;;;;36.20;28.90;;;;;;4906894;29;19919;-85
2022/08/09 06:57:45;;;;;;;;;;;36.50;27.90;;;;;;4924478;29;20291;-85
2022/08/09 07:00:12;;;;;;;;;;;36.70;27.70;;;;;;4909567;29;19925;-85
2022/08/09 07:02:37;;;;;;;;;;;36.90;27.40;;;;;;4892706;29;20032;-85
2022/08/09 07:05:03;;;;;;;;;;;37.30;27.10;;;;;;4911881;29;19947;-86
2022/08/09 07:07:29;;;;;;;;;;;37.40;26.20;;;;;;4908981;29;19971;-86
2022/08/09 07:09:55;;;;;;;;;;;37.50;26.20;;;;;;4912008;29;19923;-85
2022/08/09 07:12:20;;;;;;;;;;;37.70;25.90;;;;;;4906466;29;20292;-85
2022/08/09 07:14:46;;;;;;;;;;;37.80;25.40;;;;;;4911234;29;20030;-86
2022/08/09 07:17:13;;;;;;;;;;;37.70;25.40;;;;;;4897795;29;20018;-86
2022/08/09 07:19:38;;;;;;;;;;;37.70;25.20;;;;;;4900857;29;19974;-86
2022/08/09 07:22:04;;;;;;;;;;;37.80;25.30;;;;;;4899976;29;19923;-87
2022/08/09 07:24:29;;;;;;;;;;;38.10;25.30;;;;;;4911655;29;19977;-86
2022/08/09 07:26:55;;;;;;;;;;;38.20;25.20;;;;;;4912043;29;19927;-86
2022/08/09 07:29:21;;;;;;;;;;;38.30;24.90;;;;;;4912849;29;20005;-87
2022/08/09 07:31:46;;;;;;;;;;;38.50;24.40;;;;;;4908394;29;20292;-86
2022/08/09 07:34:12;;;;;;;;;;;38.70;24.20;;;;;;4898317;29;20410;-86
2022/08/09 07:36:38;;;;;;;;;;;38.80;24.10;;;;;;4912449;29;19915;-87
2022/08/09 07:39:04;;;;;;;;;;;38.80;24.00;;;;;;4910065;29;19927;-86
2022/08/09 07:41:29;;;;;;;;;;;38.90;24.00;;;;;;4896871;29;20603;-86
2022/08/09 07:43:55;;;;;;;;;;;39.00;23.90;;;;;;4907038;29;20280;-86
2022/08/09 07:46:20;;;;;;;;;;;39.10;23.60;;;;;;4906004;29;19930;-86
2022/08/09 07:48:46;;;;;;;;;;;39.40;23.60;;;;;;4913610;29;20336;-85
2022/08/09 07:51:12;;;;;;;;;;;39.70;23.40;;;;;;4896203;29;20514;-86
2022/08/09 07:53:38;;;;;;;;;;;39.80;23.50;;;;;;4916113;29;20030;-86
2022/08/09 07:56:04;;;;;;;;;;;40.20;22.70;;;;;;4913769;29;19962;-87
2022/08/09 07:58:29;;;;;;;;;;;40.30;22.70;;;;;;4916325;29;20510;-87
2022/08/09 08:00:55;;;;;;;;;;;40.40;22.20;;;;;;4915169;29;20280;-87
2022/08/09 08:03:20;;;;;;;;;;;40.60;21.90;;;;;;4914672;29;20042;-87
2022/08/09 08:05:48;;;;;;;;;;;40.70;22.00;;;;;;4920881;29;19923;-86
2022/08/09 08:08:14;;;;;;;;;;;40.90;21.70;;;;;;4908105;29;20298;-86
2022/08/09 08:10:39;;;;;;;;;;;41.00;20.90;;;;;;4904795;29;20395;-86
2022/08/09 08:13:05;;;;;;;;;;;41.20;20.90;;;;;;4915622;29;19919;-86
2022/08/09 08:15:30;;;;;;;;;;;41.20;20.10;;;;;;4915184;29;19934;-86
2022/08/09 08:17:56;;;;;;;;;;;41.10;20.20;;;;;;4898637;29;20429;-86
2022/08/09 08:20:22;;;;;;;;;;;41.00;20.20;;;;;;4896641;29;20352;-86
2022/08/09 08:22:51;;;;;;;;;;;41.00;20.40;;;;;;4910694;29;20434;-86
2022/08/09 08:25:17;;;;;;;;;;;40.90;20.30;;;;;;4905853;29;20026;-85
2022/08/09 08:27:42;;;;;;;;;;;40.80;20.30;;;;;;4915719;29;20472;-85
2022/08/09 08:30:08;;;;;;;;;;;40.80;20.20;;;;;;4899132;29;19923;-86
2022/08/09 08:32:34;;;;;;;;;;;40.80;20.30;;;;;;4898156;29;19952;-87
2022/08/09 08:35:02;;;;;;;;;;;40.80;20.20;;;;;;4919828;29;19923;-88
2022/08/09 08:37:28;;;;;;;;;;;40.60;20.30;;;;;;4924340;29;20010;-86
2022/08/09 08:39:53;;;;;;;;;;;40.40;20.70;;;;;;4898442;29;19970;-86
2022/08/09 08:42:22;;;;;;;;;;;40.30;20.80;;;;;;4896908;29;20716;-85
2022/08/09 08:44:50;;;;;;;;;;;40.40;20.60;;;;;;4912323;29;20602;-86
2022/08/09 08:47:16;;;;;;;;;;;40.30;20.60;;;;;;4911167;29;20371;-86
2022/08/09 08:49:41;;;;;;;;;;;40.40;20.70;;;;;;4895638;29;19930;-87
2022/08/09 08:52:07;;;;;;;;;;;40.40;20.80;;;;;;4908531;29;19929;-86
2022/08/09 08:54:33;;;;;;;;;;;40.40;20.70;;;;;;4909067;29;20067;-85
2022/08/09 08:56:59;;;;;;;;;;;40.40;20.40;;;;;;4904120;29;20361;-85
2022/08/09 08:59:24;;;;;;;;;;;40.30;20.50;;;;;;4898026;29;19939;-86
2022/08/09 09:01:50;;;;;;;;;;;40.30;20.60;;;;;;4915244;29;19922;-85
2022/08/09 09:04:18;;;;;;;;;;;40.30;20.50;;;;;;4898024;29;20006;-86
2022/08/09 09:06:44;;;;;;;;;;;40.30;20.50;;;;;;4920183;29;19919;-85
2022/08/09 09:09:13;;;;;;;;;;;40.30;20.60;;;;;;4897916;29;19915;-86
2022/08/09 09:11:39;;;;;;;;;;;40.40;20.60;;;;;;4897398;29;20380;-86
2022/08/09 09:14:16;;;;;;;;;;;40.40;20.60;;;;;;4915209;29;20357;-86
2022/08/09 09:16:41;;;;;;;;;;;40.50;20.70;;;;;;4913442;29;20360;-86
2022/08/09 09:19:08;;;;;;;;;;;40.60;20.30;;;;;;4915195;29;19951;-86
2022/08/09 09:21:33;;;;;;;;;;;40.70;20.30;;;;;;4913060;29;19923;-85
2022/08/09 09:24:05;;;;;;;;;;;40.80;20.10;;;;;;4897474;29;20318;-86
2022/08/09 09:26:33;;;;;;;;;;;40.70;19.80;;;;;;4898046;29;19958;-87
2022/08/09 09:29:00;;;;;;;;;;;40.70;20.00;;;;;;4903156;29;19921;-86
2022/08/09 09:31:25;;;;;;;;;;;40.70;19.90;;;;;;4897428;29;19923;-86
2022/08/09 09:33:51;;;;;;;;;;;40.80;20.00;;;;;;4914879;29;19919;-86
2022/08/09 09:36:17;;;;;;;;;;;40.80;19.80;;;;;;4893261;29;19923;-86
2022/08/09 09:38:45;;;;;;;;;;;40.80;19.80;;;;;;4894913;29;19944;-86
2022/08/09 09:41:24;;;;;;;;;;;40.80;19.50;;;;;;4899581;29;20002;-87
2022/08/09 09:43:50;;;;;;;;;;;40.80;19.40;;;;;;4913190;29;20530;-87
2022/08/09 09:46:16;;;;;;;;;;;41.00;19.40;;;;;;4915239;29;20017;-87
2022/08/09 09:48:58;;;;;;;;;;;40.90;19.50;;;;;;4914794;29;20014;-87
2022/08/09 09:51:28;;;;;;;;;;;41.00;19.40;;;;;;4895701;29;19925;-87
2022/08/09 09:54:10;;;;;;;;;;;41.00;19.10;;;;;;4901752;29;19938;-86
2022/08/09 09:56:37;;;;;;;;;;;40.90;19.10;;;;;;4917698;29;19923;-86
2022/08/09 09:59:03;;;;;;;;;;;40.80;19.20;;;;;;4907732;29;19920;-87
2022/08/09 10:01:29;;;;;;;;;;;40.70;19.20;;;;;;4920564;29;19923;-87
2022/08/09 10:03:55;;;;;;;;;;;40.70;19.40;;;;;;4899012;29;19925;-86
2022/08/09 10:06:20;;;;;;;;;;;40.80;19.10;;;;;;4913815;29;20538;-86
2022/08/09 10:08:47;;;;;;;;;;;40.70;19.00;;;;;;4904789;29;19923;-86
2022/08/09 10:11:16;;;;;;;;;;;40.70;19.00;;;;;;4919606;29;20014;-86
2022/08/09 10:13:42;;;;;;;;;;;40.80;19.20;;;;;;4905205;29;20057;-86
2022/08/09 10:16:07;;;;;;;;;;;41.20;18.70;;;;;;4919239;29;19927;-86
2022/08/09 10:18:33;;;;;;;;;;;41.20;18.50;;;;;;4920728;29;19961;-85
2022/08/09 10:21:08;;;;;;;;;;;41.30;18.50;;;;;;4920631;29;20022;-86
2022/08/09 10:23:35;;;;;;;;;;;41.30;18.30;;;;;;4919183;29;20010;-85
2022/08/09 10:26:01;;;;;;;;;;;41.20;18.40;;;;;;4918143;29;20010;-86
2022/08/09 10:28:28;;;;;;;;;;;41.30;18.50;;;;;;4918437;29;19926;-87
2022/08/09 10:30:53;;;;;;;;;;;41.50;18.30;;;;;;4918326;29;20377;-87
2022/08/09 10:33:19;;;;;;;;;;;41.70;18.10;;;;;;4919433;29;19915;-86
2022/08/09 10:35:45;;;;;;;;;;;41.70;17.90;;;;;;4927325;29;19922;-85
2022/08/09 10:38:11;;;;;;;;;;;41.80;17.80;;;;;;4902472;29;20412;-87
2022/08/09 10:40:37;;;;;;;;;;;41.90;17.70;;;;;;4902143;29;19923;-86
2022/08/09 10:43:03;;;;;;;;;;;42.20;17.50;;;;;;4918443;29;19922;-86
2022/08/09 10:45:30;;;;;;;;;;;42.10;17.40;;;;;;4920815;29;19930;-88
2022/08/09 10:48:06;;;;;;;;;;;42.10;17.60;;;;;;4920891;29;19922;-86
2022/08/09 10:53:51;;;;;;;;;;;42.20;17.20;;;;;;4920510;29;20006;-86
2022/08/09 10:56:19;;;;;;;;;;;42.10;17.50;;;;;;4920851;29;19930;-86
2022/08/09 10:58:44;;;;;;;;;;;42.20;17.50;;;;;;4920636;29;19994;-87
2022/08/09 11:01:42;;;;;;;;;;;42.40;17.10;;;;;;4903191;29;20010;-86
2022/08/09 11:04:08;;;;;;;;;;;42.30;17.20;;;;;;4897652;29;20463;-87
2022/08/09 11:06:36;;;;;;;;;;;42.40;17.40;;;;;;4915952;29;19911;-86
2022/08/09 11:09:02;;;;;;;;;;;42.50;17.20;;;;;;4917141;29;19918;-86
2022/08/09 11:11:47;;;;;;;;;;;42.70;16.90;;;;;;4916052;29;19970;-86
2022/08/09 11:14:36;;;;;;;;;;;42.80;17.20;;;;;;4917852;29;19915;-87
2022/08/09 11:17:17;;;;;;;;;;;43.00;16.90;;;;;;4926793;29;20387;-87
2022/08/09 11:19:49;;;;;;;;;;;43.10;16.90;;;;;;4916237;29;19934;-87
2022/08/09 11:22:17;;;;;;;;;;;43.10;16.60;;;;;;4912125;29;20399;-86
2022/08/09 11:25:02;;;;;;;;;;;43.10;16.70;;;;;;4894002;29;19919;-86
2022/08/09 11:27:29;;;;;;;;;;;42.90;16.60;;;;;;4910922;29;20001;-86
2022/08/09 11:29:55;;;;;;;;;;;42.70;16.60;;;;;;4916554;29;19933;-86
2022/08/09 11:32:39;;;;;;;;;;;42.50;16.60;;;;;;4899580;29;19915;-87
2022/08/09 11:35:07;;;;;;;;;;;42.50;16.90;;;;;;4912587;29;19964;-86
2022/08/09 11:37:33;;;;;;;;;;;42.70;17.10;;;;;;4914048;29;19922;-86
2022/08/09 11:40:06;;;;;;;;;;;42.80;16.80;;;;;;4895060;29;19923;-86
2022/08/09 11:42:42;;;;;;;;;;;43.00;16.60;;;;;;4909835;29;20668;-86
2022/08/09 11:45:19;;;;;;;;;;;43.00;16.50;;;;;;4901311;29;20406;-86
2022/08/09 11:47:48;;;;;;;;;;;42.90;16.60;;;;;;4910273;29;20023;-86
2022/08/09 11:50:14;;;;;;;;;;;43.00;16.60;;;;;;4904004;29;20415;-86
2022/08/09 11:52:58;;;;;;;;;;;43.20;16.50;;;;;;4912129;29;19923;-86
2022/08/09 11:55:30;;;;;;;;;;;43.30;16.50;;;;;;4903932;29;19915;-86
2022/08/09 11:57:56;;;;;;;;;;;43.00;16.40;;;;;;4897640;29;19931;-86
2022/08/09 12:00:22;;;;;;;;;;;42.80;16.40;;;;;;4907689;29;19919;-85
2022/08/09 12:02:47;;;;;;;;;;;42.90;16.70;;;;;;4919320;29;20265;-86
2022/08/09 12:05:13;;;;;;;;;;;42.90;16.40;;;;;;4884460;29;19926;-86
2022/08/09 12:07:39;;;;;;;;;;;42.80;16.70;;;;;;4908881;29;20052;-86
2022/08/09 12:10:05;;;;;;;;;;;42.80;16.60;;;;;;4897282;29;19920;-86
2022/08/09 12:12:43;;;;;;;;;;;42.80;16.50;;;;;;4903410;29;19975;-86
2022/08/09 12:15:25;;;;;;;;;;;42.80;16.50;;;;;;4903875;29;19923;-86
2022/08/09 12:17:52;;;;;;;;;;;42.70;16.70;;;;;;4881264;29;20292;-86
2022/08/09 12:20:22;;;;;;;;;;;42.70;16.60;;;;;;4899155;29;19915;-86
2022/08/09 12:22:49;;;;;;;;;;;42.70;16.70;;;;;;4901083;29;20279;-86
2022/08/09 12:25:16;;;;;;;;;;;43.00;16.60;;;;;;4914100;29;19931;-87
2022/08/09 12:27:41;;;;;;;;;;;43.10;16.40;;;;;;4917623;29;19911;-86
2022/08/09 12:30:08;;;;;;;;;;;43.00;16.20;;;;;;4919171;29;20319;-86
2022/08/09 12:32:34;;;;;;;;;;;42.90;16.40;;;;;;4884030;29;20285;-87
2022/08/09 12:35:01;;;;;;;;;;;42.90;16.40;;;;;;4898695;29;20003;-87
2022/08/09 12:37:31;;;;;;;;;;;42.70;16.50;;;;;;4903246;29;19919;-87
2022/08/09 12:40:00;;;;;;;;;;;42.40;16.30;;;;;;4917143;29;19923;-87
2022/08/09 12:42:26;;;;;;;;;;;42.20;16.60;;;;;;4911717;29;20006;-86
2022/08/09 12:44:52;;;;;;;;;;;42.00;16.80;;;;;;4899106;29;19978;-87
2022/08/09 12:47:18;;;;;;;;;;;42.00;16.90;;;;;;4914928;29;19923;-87
2022/08/09 12:50:15;;;;;;;;;;;41.80;16.90;;;;;;4913854;29;19923;-86
2022/08/09 12:52:38;;;;;;;;;;;41.50;17.20;;;;;;4910414;29;19919;-86
2022/08/09 12:55:04;;;;;;;;;;;41.10;17.60;;;;;;4911506;29;19931;-86
2022/08/09 12:57:43;;;;;;;;;;;40.70;17.70;;;;;;4914615;29;19923;-86
2022/08/09 13:00:09;;;;;;;;;;;40.20;18.10;;;;;;4914851;29;20360;-87
2022/08/09 13:02:46;;;;;;;;;;;39.80;18.30;;;;;;4911000;29;19926;-86
2022/08/09 13:05:12;;;;;;;;;;;39.70;18.60;;;;;;4912475;29;19923;-86
2022/08/09 13:07:37;;;;;;;;;;;39.30;18.90;;;;;;4899805;29;19919;-86
2022/08/09 13:10:03;;;;;;;;;;;39.00;19.00;;;;;;4917333;29;19937;-86
2022/08/09 13:12:29;;;;;;;;;;;38.80;19.20;;;;;;4899623;29;20380;-86
2022/08/09 13:15:04;;;;;;;;;;;38.40;19.40;;;;;;4916399;29;19950;-86
2022/08/09 13:17:30;;;;;;;;;;;38.10;19.80;;;;;;4912522;29;19923;-86
2022/08/09 13:19:56;;;;;;;;;;;37.80;20.10;;;;;;4895227;29;19923;-86
2022/08/09 13:22:23;;;;;;;;;;;37.70;20.20;;;;;;4908064;29;19975;-86
2022/08/09 13:24:57;;;;;;;;;;;37.50;20.60;;;;;;4890059;29;19966;-86
2022/08/09 13:27:24;;;;;;;;;;;37.40;20.60;;;;;;4902772;29;19970;-86
2022/08/09 13:29:55;;;;;;;;;;;37.10;20.70;;;;;;4897109;29;19923;-86
2022/08/09 13:32:21;;;;;;;;;;;37.00;21.00;;;;;;4915866;29;20026;-86
2022/08/09 13:34:46;;;;;;;;;;;36.80;21.10;;;;;;4925226;29;20034;-86
2022/08/09 13:37:13;;;;;;;;;;;36.70;21.30;;;;;;4913958;29;19915;-86
2022/08/09 13:39:39;;;;;;;;;;;36.70;21.50;;;;;;4894822;29;20010;-86
2022/08/09 13:42:05;;;;;;;;;;;36.70;21.60;;;;;;4909622;29;19958;-86
2022/08/09 13:44:31;;;;;;;;;;;36.70;21.50;;;;;;4907843;29;19986;-86
2022/08/09 13:46:57;;;;;;;;;;;36.50;21.50;;;;;;4912294;29;19923;-86
2022/08/09 13:49:22;;;;;;;;;;;36.30;21.50;;;;;;4911229;29;20021;-86
2022/08/09 13:51:47;;;;;;;;;;;36.10;21.40;;;;;;4908380;29;19915;-86
2022/08/09 13:54:13;;;;;;;;;;;36.00;21.60;;;;;;4914250;29;19932;-86
2022/08/09 13:56:39;;;;;;;;;;;35.90;21.90;;;;;;4905949;29;19918;-86
2022/08/09 13:59:04;;;;;;;;;;;35.80;22.00;;;;;;4891898;29;19927;-86
2022/08/09 14:01:29;;;;;;;;;;;35.70;22.00;;;;;;4904166;29;19923;-86
2022/08/09 14:03:55;;;;;;;;;;;35.50;22.20;;;;;;4898593;29;19923;-86
2022/08/09 14:06:20;;;;;;;;;;;35.40;22.30;;;;;;4920923;29;19930;-87
2022/08/09 14:08:46;;;;;;;;;;;35.30;22.30;;;;;;4899350;29;19923;-86
2022/08/09 14:11:11;;;;;;;;;;;35.40;22.50;;;;;;4916783;29;20263;-86
2022/08/09 14:13:37;;;;;;;;;;;35.30;22.30;;;;;;4916565;29;20344;-86
2022/08/09 14:16:02;;;;;;;;;;;35.40;22.30;;;;;;4920363;29;19971;-86
2022/08/09 14:18:28;;;;;;;;;;;35.30;22.30;;;;;;4907306;29;19956;-86
2022/08/09 14:20:54;;;;;;;;;;;35.20;22.40;;;;;;4912858;29;19915;-86